Time;durP1;ratioP1;P1;durP2;ratioP2;P2;SDS_P1;SDS_P2;PMS_P1;PMS_P2;Temp;Humidity;BMP_temperature;BMP_pressure;BME280_temperature;BME280_humidity;BME280_pressure;Samples;Min_cycle;Max_cycle;Signal;HPM_P1;HPM_P2
2024/04/21 00:11:29;;;;;;;2.10;2.00;;;;;;;7.01;100.00;101986.81;7660094;22;20275;-68
2024/04/21 00:24:31;;;;;;;;;;;;;;;;;;;;;
2024/04/21 00:36:59;;;;;;;4.63;4.23;;;;;;;6.60;100.00;101997.16;7276301;23;20294;-66
2024/04/21 00:49:18;;;;;;;;;;;;;;;;;;;;;
2024/04/21 01:19:41;;;;;;;;;;;;;;;;;;;;;
2024/04/21 01:27:44;;;;;;;3.70;2.80;;;;;;;5.95;100.00;102029.22;7611331;22;20276;-67
2024/04/21 01:35:30;;;;;;;;;;;;;;;;;;;;;
2024/04/21 01:50:11;;;;;;;;;;;;;;;;;;;;;
2024/04/21 01:57:33;;;;;;;2.33;2.13;;;;;;;5.67;100.00;102051.97;7622353;22;20285;-66
2024/04/21 02:04:41;;;;;;;2.07;1.97;;;;;;;5.58;100.00;102064.97;7702803;22;20264;-68
2024/04/21 02:08:15;;;;;;;2.43;2.23;;;;;;;5.49;100.00;102063.59;7639557;22;20420;-68
2024/04/21 02:15:57;;;;;;;;;;;;;;;;;;;;;
2024/04/21 02:56:55;;;;;;;;;;;;;;;;;;;;;
2024/04/21 03:41:24;;;;;;;3.23;3.03;;;;;;;5.18;100.00;102161.34;7675400;22;21718;-69
2024/04/21 05:56:57;;;;;;;2.90;2.60;;;;;;;6.16;100.00;102335.97;7575104;22;20259;-66
2024/04/21 06:32:38;;;;;;;2.43;2.00;;;;;;;6.93;100.00;102375.06;7670629;22;20337;-69
2024/04/21 07:40:20;;;;;;;2.47;2.27;;;;;;;8.27;100.00;102427.06;7728093;22;20281;-65
2024/04/21 09:32:51;;;;;;;1.90;1.73;;;;;;;10.52;72.35;102491.75;7662847;22;22508;-66
2024/04/21 09:44:50;;;;;;;;;;;;;;;;;;;;;
2024/04/21 09:53:51;;;;;;;1.27;1.17;;;;;;;11.48;69.27;102484.53;7328528;23;20265;-65
2024/04/21 10:44:49;;;;;;;1.73;1.63;;;;;;;12.59;54.74;102483.09;7659456;22;20270;-65
2024/04/21 11:05:05;;;;;;;;;;;;;;;;;;;;;
2024/04/21 11:12:40;;;;;;;1.37;1.23;;;;;;;13.56;53.11;102471.34;7622011;22;20316;-64
2024/04/21 11:16:00;;;;;;;1.13;1.00;;;;;;;13.95;48.76;102456.59;7675771;22;21234;-63
2024/04/21 11:19:23;;;;;;;1.50;1.40;;;;;;;15.32;45.69;102452.66;7717498;22;20273;-63
2024/04/21 11:22:45;;;;;;;1.40;1.30;;;;;;;14.95;44.08;102447.56;7708557;22;20286;-65
2024/04/21 11:26:09;;;;;;;1.73;1.27;;;;;;;15.16;44.88;102450.38;7617060;22;20277;-64
2024/04/21 11:29:32;;;;;;;1.67;1.57;;;;;;;14.62;43.25;102446.72;7725659;22;20258;-64
2024/04/21 11:32:54;;;;;;;1.60;1.50;;;;;;;14.64;43.89;102442.91;7700940;22;20262;-65
2024/04/21 11:36:21;;;;;;;1.97;1.50;;;;;;;14.22;44.35;102449.00;7710933;22;20266;-64
2024/04/21 11:39:46;;;;;;;1.13;1.13;;;;;;;13.58;43.59;102456.69;7723361;22;20572;-64
2024/04/21 11:43:08;;;;;;;1.33;1.23;;;;;;;13.23;46.21;102463.03;7716233;22;20677;-65
2024/04/21 11:46:31;;;;;;;2.40;1.30;;;;;;;12.52;48.26;102463.72;7713110;22;20266;-65
2024/04/21 11:49:51;;;;;;;2.47;1.37;;;;;;;12.65;48.98;102458.31;7721867;22;20306;-64
2024/04/21 11:53:14;;;;;;;1.23;1.13;;;;;;;12.69;53.58;102462.53;7723198;22;20266;-64
2024/04/21 11:56:37;;;;;;;3.37;1.37;;;;;;;13.11;49.73;102466.66;7714351;22;20273;-65
2024/04/21 11:59:59;;;;;;;1.40;1.37;;;;;;;13.80;46.95;102458.66;7727130;22;20565;-64
2024/04/21 12:03:21;;;;;;;1.47;1.20;;;;;;;14.81;43.54;102455.94;7718864;22;20525;-65
2024/04/21 12:06:41;;;;;;;1.37;1.27;;;;;;;14.50;45.24;102464.00;7715688;22;20289;-65
2024/04/21 12:10:03;;;;;;;1.10;1.00;;;;;;;13.59;45.01;102457.56;7729619;22;20269;-65
2024/04/21 12:13:28;;;;;;;1.23;1.00;;;;;;;12.85;47.29;102458.59;7719906;22;20589;-62
2024/04/21 12:16:51;;;;;;;5.17;1.67;;;;;;;12.80;49.64;102458.06;7701932;22;20270;-65
2024/04/21 12:20:13;;;;;;;1.70;1.60;;;;;;;12.57;50.43;102461.56;7705360;22;20294;-64
2024/04/21 12:23:33;;;;;;;1.03;1.00;;;;;;;12.50;50.69;102456.69;7753529;22;20581;-63
2024/04/21 12:26:55;;;;;;;1.47;1.37;;;;;;;12.38;53.19;102463.00;7713068;22;20562;-63
2024/04/21 12:30:21;;;;;;;1.53;1.30;;;;;;;12.17;52.72;102462.66;7705090;22;20500;-65
2024/04/21 12:33:40;;;;;;;2.13;1.20;;;;;;;12.47;52.75;102465.91;7720180;22;20266;-63
2024/04/21 12:37:02;;;;;;;1.70;1.60;;;;;;;12.44;51.00;102458.00;7710211;22;20262;-64
2024/04/21 12:40:27;;;;;;;1.70;1.60;;;;;;;12.57;48.56;102452.59;7709406;22;21081;-64
2024/04/21 12:43:46;;;;;;;1.30;1.20;;;;;;;12.54;48.76;102458.22;7721342;22;20278;-65
2024/04/21 12:47:13;;;;;;;1.77;1.60;;;;;;;12.49;48.11;102455.84;7703952;22;20266;-65
2024/04/21 12:50:35;;;;;;;1.20;1.10;;;;;;;12.55;50.91;102452.72;7712179;22;20270;-64
2024/04/21 12:53:55;;;;;;;1.23;1.13;;;;;;;12.75;59.63;102449.41;7723614;22;20863;-63
2024/04/21 12:57:17;;;;;;;1.00;0.97;;;;;;;13.21;77.50;102449.63;7697499;22;20332;-68
2024/04/21 13:00:37;;;;;;;2.13;1.33;;;;;;;13.45;71.14;102452.34;7714060;22;20281;-66
2024/04/21 13:04:04;;;;;;;3.33;1.97;;;;;;;13.92;75.20;102454.09;7722945;22;20310;-66
2024/04/21 13:07:26;;;;;;;1.40;1.30;;;;;;;14.09;75.58;102445.53;7710097;22;20830;-66
2024/04/21 13:10:46;;;;;;;2.03;1.83;;;;;;;13.89;74.67;102444.38;7714323;22;20502;-67
2024/04/21 13:14:08;;;;;;;3.57;1.73;;;;;;;13.49;63.18;102438.47;7723945;22;20307;-65
2024/04/21 13:17:30;;;;;;;6.83;6.13;;;;;;;13.94;82.47;102441.28;7709067;22;20304;-66
2024/04/21 13:20:53;;;;;;;3.07;2.77;;;;;;;14.15;83.82;102445.91;7707403;22;20293;-64
2024/04/21 13:24:15;;;;;;;2.00;1.80;;;;;;;14.68;79.87;102435.38;7727841;22;20270;-65
2024/04/21 13:27:37;;;;;;;3.17;1.73;;;;;;;14.59;82.41;102436.97;7710092;22;20306;-66
2024/04/21 13:30:59;;;;;;;1.90;1.80;;;;;;;14.37;73.90;102435.09;7709457;22;20266;-66
2024/04/21 13:34:21;;;;;;;1.93;1.83;;;;;;;15.31;69.25;102435.47;7719505;22;20294;-66
2024/04/21 13:37:44;;;;;;;1.80;1.70;;;;;;;17.12;61.23;102440.34;7714590;22;20278;-66
2024/04/21 13:41:06;;;;;;;1.53;1.43;;;;;;;17.82;59.84;102435.53;7710666;22;20314;-66
2024/04/21 13:44:29;;;;;;;1.50;1.40;;;;;;;18.08;54.98;102428.47;7729838;22;20333;-67
2024/04/21 13:47:51;;;;;;;1.70;1.50;;;;;;;19.10;55.50;102436.56;7710909;22;20261;-66
2024/04/21 13:51:11;;;;;;;1.50;1.40;;;;;;;18.98;45.33;102443.22;7712712;22;20265;-66
2024/04/21 13:54:37;;;;;;;1.70;1.57;;;;;;;20.00;44.43;102430.09;7728911;22;20278;-66
2024/04/21 13:57:58;;;;;;;1.43;1.33;;;;;;;17.02;43.59;102443.03;7718381;22;20302;-66
2024/04/21 14:01:21;;;;;;;1.50;1.40;;;;;;;16.29;50.88;102451.44;7692038;22;20266;-65
2024/04/21 14:04:43;;;;;;;1.40;1.30;;;;;;;14.70;48.64;102446.97;7717732;22;20278;-66
2024/04/21 14:08:03;;;;;;;1.70;1.10;;;;;;;15.41;48.17;102447.31;7684440;22;20270;-67
2024/04/21 14:11:28;;;;;;;1.63;1.53;;;;;;;15.81;46.52;102448.41;7711415;22;20277;-68
2024/04/21 14:14:48;;;;;;;1.30;1.20;;;;;;;14.33;47.92;102452.63;7720808;22;20563;-67
2024/04/21 14:18:11;;;;;;;1.40;1.30;;;;;;;14.01;49.36;102456.97;7708810;22;20309;-67
2024/04/21 14:21:31;;;;;;;1.60;1.50;;;;;;;13.52;50.18;102462.59;7705051;22;20266;-66
2024/04/21 14:24:53;;;;;;;1.70;1.60;;;;;;;13.60;51.53;102462.03;7719018;22;20306;-66
2024/04/21 14:28:25;;;;;;;2.33;1.83;;;;;;;13.73;50.05;102470.94;7720143;22;20282;-65
2024/04/21 14:31:47;;;;;;;2.70;2.20;;;;;;;13.53;63.68;102469.75;7685651;22;20282;-64
2024/04/21 14:35:07;;;;;;;3.47;1.57;;;;;;;12.99;74.09;102464.84;7691948;22;20289;-63
2024/04/21 14:38:29;;;;;;;5.07;4.57;;;;;;;13.33;78.95;102486.63;7717326;22;20281;-64
2024/04/21 14:41:49;;;;;;;3.63;2.17;;;;;;;13.06;83.24;102487.81;7709772;22;20504;-64
2024/04/21 14:45:14;;;;;;;1.97;1.73;;;;;;;12.89;82.30;102496.28;7708239;22;20266;-65
2024/04/21 14:48:36;;;;;;;2.60;2.40;;;;;;;12.90;82.08;102492.56;7718728;22;20454;-65
2024/04/21 14:51:56;;;;;;;2.07;1.70;;;;;;;12.88;82.15;102503.53;7701916;22;20611;-65
2024/04/21 14:55:18;;;;;;;1.43;1.33;;;;;;;12.17;84.35;102507.75;7714697;22;20270;-63
2024/04/21 14:58:38;;;;;;;2.47;2.00;;;;;;;11.68;87.38;102521.06;7727930;22;20659;-64
2024/04/21 15:02:05;;;;;;;2.13;1.37;;;;;;;11.60;90.78;102521.53;7682653;22;20270;-63
2024/04/21 15:05:28;;;;;;;1.40;1.30;;;;;;;11.17;98.19;102528.91;7703285;22;20258;-64
2024/04/21 15:08:51;;;;;;;2.37;1.97;;;;;;;10.89;100.00;102545.13;7722045;22;20273;-64
2024/04/21 15:12:13;;;;;;;1.53;1.43;;;;;;;10.11;100.00;102547.34;7710601;22;20278;-62
2024/04/21 15:15:35;;;;;;;1.73;1.63;;;;;;;9.51;100.00;102563.41;7702932;22;20337;-63
2024/04/21 15:18:57;;;;;;;1.30;1.20;;;;;;;9.39;100.00;102553.34;7713349;22;20266;-63
2024/04/21 15:22:20;;;;;;;2.07;1.87;;;;;;;9.24;100.00;102564.13;7703978;22;20261;-63
2024/04/21 15:25:42;;;;;;;2.60;1.60;;;;;;;9.16;100.00;102577.13;7712907;22;20313;-63
2024/04/21 15:29:05;;;;;;;3.40;1.77;;;;;;;9.18;100.00;102581.47;7722070;22;20609;-64
2024/04/21 15:32:27;;;;;;;2.37;2.17;;;;;;;9.15;100.00;102587.03;7706144;22;20265;-64
2024/04/21 15:35:52;;;;;;;1.43;1.33;;;;;;;9.13;100.00;102574.63;7712243;22;20269;-63
2024/04/21 15:39:12;;;;;;;2.00;1.80;;;;;;;9.02;100.00;102551.00;7724273;22;20262;-64
2024/04/21 15:42:34;;;;;;;1.70;1.60;;;;;;;9.24;100.00;102542.63;7712362;22;20262;-64
2024/04/21 15:45:54;;;;;;;2.77;1.93;;;;;;;9.47;100.00;102544.88;7715504;22;20297;-63
2024/04/21 15:49:16;;;;;;;1.43;1.20;;;;;;;9.79;100.00;102551.91;7729697;22;20705;-63
2024/04/21 15:52:41;;;;;;;1.70;1.60;;;;;;;9.98;100.00;102547.19;7716681;22;20266;-63
2024/04/21 15:56:04;;;;;;;2.13;1.80;;;;;;;10.12;100.00;102549.06;7715939;22;20301;-63
2024/04/21 15:59:24;;;;;;;2.00;1.83;;;;;;;10.00;100.00;102556.03;7729271;22;20270;-64
2024/04/21 16:02:47;;;;;;;1.70;1.60;;;;;;;10.08;100.00;102552.88;7695622;22;21178;-63
2024/04/21 16:06:09;;;;;;;1.60;1.50;;;;;;;10.22;100.00;102552.97;7702587;22;20582;-63
2024/04/21 16:09:34;;;;;;;4.77;1.70;;;;;;;10.36;100.00;102553.88;7724432;22;20281;-63
2024/04/21 16:12:56;;;;;;;2.90;1.93;;;;;;;10.28;100.00;102558.84;7715186;22;20262;-63
2024/04/21 16:16:16;;;;;;;1.47;1.20;;;;;;;10.02;100.00;102553.25;7714321;22;20282;-63
2024/04/21 16:19:39;;;;;;;1.50;1.40;;;;;;;10.14;100.00;102553.41;7718095;22;20274;-63
2024/04/21 16:23:01;;;;;;;1.53;1.20;;;;;;;10.60;100.00;102548.78;7714053;22;20567;-63
2024/04/21 16:26:26;;;;;;;2.10;1.70;;;;;;;10.69;100.00;102537.41;7712138;22;20645;-63
2024/04/21 16:29:48;;;;;;;1.60;1.43;;;;;;;10.70;100.00;102541.84;7670770;22;20773;-63
2024/04/21 16:37:20;;;;;;;1.77;1.67;;;;;;;10.81;100.00;102547.44;7692821;22;20570;-64
2024/04/21 16:40:41;;;;;;;2.00;1.80;;;;;;;10.84;100.00;102544.56;7711519;22;20277;-64
2024/04/21 16:44:07;;;;;;;2.70;2.00;;;;;;;10.65;100.00;102543.09;7725717;22;20270;-63
2024/04/21 16:47:32;;;;;;;2.00;1.80;;;;;;;10.49;100.00;102543.19;7695855;22;20310;-62
2024/04/21 16:50:55;;;;;;;3.27;2.67;;;;;;;10.89;100.00;102546.97;7696060;22;20270;-63
2024/04/21 16:54:30;;;;;;;;;;;;;;;;;;;;;
2024/04/21 16:58:15;;;;;;;2.10;1.80;;;;;;;11.05;100.00;102556.69;7621222;22;20743;-65
2024/04/21 17:01:40;;;;;;;3.50;1.77;;;;;;;10.74;100.00;102550.63;7643455;23;20279;-64
2024/04/21 17:05:00;;;;;;;1.83;1.60;;;;;;;10.56;100.00;102554.44;7661673;23;20267;-64
2024/04/21 17:08:31;;;;;;;3.70;3.40;;;;;;;10.31;100.00;102553.28;7665038;23;20275;-64
2024/04/21 17:11:55;;;;;;;4.90;4.40;;;;;;;10.11;100.00;102558.13;7651648;23;20267;-62
2024/04/21 17:15:14;;;;;;;5.20;4.47;;;;;;;9.84;100.00;102563.31;7651348;23;20282;-62
2024/04/21 17:18:42;;;;;;;4.83;4.17;;;;;;;9.84;100.00;102562.44;7660875;23;20275;-63
2024/04/21 17:22:02;;;;;;;2.67;2.03;;;;;;;9.55;100.00;102567.66;7652906;23;20263;-62
2024/04/21 17:25:24;;;;;;;2.40;2.10;;;;;;;9.40;100.00;102570.38;7641864;22;20267;-62
2024/04/21 17:28:47;;;;;;;2.23;2.03;;;;;;;9.27;100.00;102578.28;7664868;23;20319;-63
2024/04/21 17:32:09;;;;;;;2.60;2.40;;;;;;;9.31;100.00;102566.38;7646337;23;20572;-62
2024/04/21 17:35:34;;;;;;;2.33;2.13;;;;;;;9.23;100.00;102578.53;7657810;23;20279;-62
2024/04/21 17:38:54;;;;;;;2.67;2.47;;;;;;;9.12;100.00;102578.25;7671562;23;20275;-63
2024/04/21 17:42:17;;;;;;;2.53;1.73;;;;;;;9.14;100.00;102581.72;7661009;23;20271;-63
2024/04/21 17:45:39;;;;;;;2.60;2.40;;;;;;;8.92;100.00;102578.50;7675505;23;20266;-63
2024/04/21 17:49:01;;;;;;;2.10;1.90;;;;;;;8.98;100.00;102578.16;7664422;23;20275;-63
2024/04/21 17:52:24;;;;;;;2.63;2.10;;;;;;;8.97;100.00;102577.28;7656726;23;20262;-63
2024/04/21 17:55:47;;;;;;;3.07;2.17;;;;;;;8.78;100.00;102584.63;7659351;23;20274;-63
2024/04/21 17:59:09;;;;;;;4.03;2.73;;;;;;;8.81;100.00;102584.44;7668064;23;20326;-63
2024/04/21 18:02:29;;;;;;;3.83;3.03;;;;;;;8.76;100.00;102587.38;7642799;23;20278;-63
2024/04/21 18:05:52;;;;;;;6.90;5.53;;;;;;;9.51;100.00;102590.34;7654233;23;20267;-64
2024/04/21 18:09:17;;;;;;;7.20;5.57;;;;;;;10.12;100.00;102592.19;7662417;23;20271;-64
2024/04/21 18:12:39;;;;;;;4.57;4.17;;;;;;;10.01;100.00;102591.94;7619485;22;20322;-63
2024/04/21 18:16:01;;;;;;;2.90;2.60;;;;;;;9.07;100.00;102604.56;7708015;22;20262;-62
2024/04/21 18:19:23;;;;;;;3.30;2.73;;;;;;;8.63;100.00;102601.56;7717661;22;20469;-63
2024/04/21 18:22:45;;;;;;;3.40;3.10;;;;;;;8.38;100.00;102596.63;7708921;22;20277;-63
2024/04/21 18:26:07;;;;;;;2.87;2.67;;;;;;;8.31;100.00;102595.19;7711258;22;20270;-62
2024/04/21 18:29:30;;;;;;;4.57;3.00;;;;;;;8.26;100.00;102599.94;7714939;22;20278;-63
2024/04/21 18:32:52;;;;;;;4.53;3.37;;;;;;;8.18;100.00;102603.94;7717980;22;20273;-63
2024/04/21 18:36:12;;;;;;;3.33;3.13;;;;;;;8.01;100.00;102594.91;7714504;22;20273;-63
2024/04/21 18:39:35;;;;;;;5.30;3.07;;;;;;;7.97;100.00;102606.75;7721549;22;20274;-63
2024/04/21 18:42:59;;;;;;;4.13;3.27;;;;;;;7.96;100.00;102605.03;7704033;22;20282;-63
2024/04/21 18:46:19;;;;;;;4.13;3.37;;;;;;;7.89;100.00;102608.09;7705398;22;20265;-63
2024/04/21 18:49:42;;;;;;;3.57;3.27;;;;;;;7.90;100.00;102608.03;7723503;22;21072;-63
2024/04/21 18:53:04;;;;;;;2.93;2.73;;;;;;;7.83;100.00;102617.31;7712752;22;20278;-62
2024/04/21 18:56:26;;;;;;;4.50;3.30;;;;;;;7.69;100.00;102611.78;7711123;22;21033;-62
2024/04/21 18:59:51;;;;;;;4.77;4.03;;;;;;;7.70;100.00;102616.19;7719520;22;20282;-63
2024/04/21 19:03:13;;;;;;;5.37;3.97;;;;;;;7.70;100.00;102610.81;7715811;22;20270;-62
2024/04/21 19:06:32;;;;;;;4.00;3.67;;;;;;;7.64;100.00;102611.13;7711040;22;20321;-63
2024/04/21 19:09:59;;;;;;;3.20;2.90;;;;;;;7.63;100.00;102617.44;7722587;22;20266;-63
2024/04/21 19:13:22;;;;;;;3.93;3.60;;;;;;;7.63;100.00;102608.50;7717794;22;20281;-63
2024/04/21 19:16:45;;;;;;;3.07;2.77;;;;;;;7.58;100.00;102618.59;7723041;22;20318;-62
2024/04/21 19:20:08;;;;;;;4.63;3.83;;;;;;;7.57;100.00;102622.22;7715687;22;20274;-63
2024/04/21 19:23:31;;;;;;;3.97;3.00;;;;;;;7.53;100.00;102617.97;7721790;22;20547;-63
2024/04/21 19:26:53;;;;;;;3.27;2.90;;;;;;;7.63;100.00;102617.44;7713854;22;20266;-62
2024/04/21 19:30:13;;;;;;;3.20;3.00;;;;;;;7.50;100.00;102624.34;7709835;22;20476;-63
2024/04/21 19:33:38;;;;;;;5.50;4.17;;;;;;;7.44;100.00;102621.94;7722411;22;20262;-63
2024/04/21 19:37:00;;;;;;;3.33;2.97;;;;;;;7.40;100.00;102615.00;7716889;22;20455;-62
2024/04/21 19:40:21;;;;;;;4.60;3.90;;;;;;;7.39;100.00;102623.97;7719704;22;20262;-62
2024/04/21 19:43:44;;;;;;;5.17;3.60;;;;;;;7.39;100.00;102617.72;7722993;22;20273;-63
2024/04/21 19:47:04;;;;;;;2.50;2.27;;;;;;;7.43;100.00;102617.50;7710596;22;20266;-62
2024/04/21 19:50:30;;;;;;;3.50;3.07;;;;;;;7.33;100.00;102618.03;7713502;22;20270;-62
2024/04/21 19:53:49;;;;;;;4.87;4.07;;;;;;;7.25;100.00;102613.91;7727734;22;20266;-63
2024/04/21 19:57:12;;;;;;;3.07;2.80;;;;;;;7.21;100.00;102617.69;7714348;22;20645;-62
2024/04/21 20:00:34;;;;;;;5.23;3.60;;;;;;;7.19;100.00;102618.69;7709219;22;20265;-63
2024/04/21 20:03:58;;;;;;;6.20;2.83;;;;;;;7.21;100.00;102624.84;7713495;22;20270;-65
2024/04/21 20:07:23;;;;;;;3.70;3.23;;;;;;;7.14;100.00;102618.91;7719481;22;20596;-64
2024/04/21 20:10:42;;;;;;;5.60;3.00;;;;;;;8.80;100.00;102617.69;7709783;22;20278;-64
2024/04/21 20:14:04;;;;;;;4.73;3.23;;;;;;;9.14;100.00;102616.69;7719210;22;21096;-66
2024/04/21 20:21:06;;;;;;;3.20;2.83;;;;;;;7.59;100.00;102615.84;7710789;22;20266;-67
2024/04/21 20:24:31;;;;;;;4.60;2.50;;;;;;;7.46;100.00;102629.91;7726587;22;20321;-66
2024/04/21 20:27:56;;;;;;;2.83;2.60;;;;;;;7.33;100.00;102624.25;7714472;22;20257;-66
2024/04/21 20:31:17;;;;;;;5.97;3.10;;;;;;;7.29;100.00;102633.41;7695061;22;20289;-67
2024/04/21 20:34:51;;;;;;;4.50;3.80;;;;;;;7.12;100.00;102619.91;7724259;22;20266;-68
2024/04/21 20:38:13;;;;;;;3.57;2.97;;;;;;;7.11;100.00;102620.84;7719372;22;20277;-67
2024/04/21 20:41:40;;;;;;;5.17;3.23;;;;;;;7.06;100.00;102622.88;7691146;22;20484;-66
2024/04/21 20:45:00;;;;;;;3.20;3.00;;;;;;;7.10;100.00;102622.66;7720102;22;20265;-66
2024/04/21 20:48:23;;;;;;;5.17;3.27;;;;;;;7.08;100.00;102631.72;7715977;22;20480;-66
2024/04/21 20:51:42;;;;;;;3.47;2.40;;;;;;;7.11;100.00;102629.75;7713312;22;20270;-68
2024/04/21 20:55:05;;;;;;;4.87;3.90;;;;;;;7.07;100.00;102621.94;7724706;22;20270;-68
2024/04/21 20:58:30;;;;;;;4.20;2.50;;;;;;;7.08;100.00;102635.28;7724515;22;20270;-67
2024/04/21 21:01:53;;;;;;;3.37;3.07;;;;;;;6.95;100.00;102635.88;7706649;22;20274;-67
2024/04/21 21:05:16;;;;;;;2.50;1.77;;;;;;;6.93;100.00;102633.28;7713528;22;20270;-67
2024/04/21 21:08:36;;;;;;;4.83;2.97;;;;;;;7.01;100.00;102641.84;7724397;22;20266;-66
2024/04/21 21:11:58;;;;;;;6.80;2.47;;;;;;;7.02;100.00;102634.69;7708664;22;20931;-66
2024/04/21 21:15:21;;;;;;;3.27;2.50;;;;;;;6.91;100.00;102631.59;7701590;22;20273;-67
2024/04/21 21:18:43;;;;;;;3.03;1.80;;;;;;;6.81;100.00;102638.34;7722647;22;20281;-67
2024/04/21 21:22:03;;;;;;;5.27;3.67;;;;;;;6.97;100.00;102634.00;7712422;22;20270;-67
2024/04/21 21:25:25;;;;;;;2.93;2.63;;;;;;;6.96;100.00;102641.22;7710285;22;20938;-66
2024/04/21 21:28:47;;;;;;;2.33;2.13;;;;;;;6.98;100.00;102646.50;7727736;22;20286;-68
2024/04/21 21:32:12;;;;;;;3.77;2.83;;;;;;;6.92;100.00;102644.09;7702271;22;20258;-67
2024/04/21 21:35:35;;;;;;;4.63;3.60;;;;;;;6.97;100.00;102644.72;7708435;22;20265;-67
2024/04/21 21:38:57;;;;;;;2.67;2.50;;;;;;;6.93;100.00;102649.38;7728255;22;20262;-68
2024/04/21 21:42:19;;;;;;;2.57;2.30;;;;;;;7.02;100.00;102650.78;7710468;22;20660;-67
2024/04/21 21:45:42;;;;;;;3.93;2.87;;;;;;;6.97;100.00;102659.00;7700844;22;20577;-67
2024/04/21 21:49:07;;;;;;;6.03;4.50;;;;;;;7.02;100.00;102648.09;7726711;22;20320;-67
2024/04/21 21:52:29;;;;;;;4.40;3.10;;;;;;;6.94;100.00;102644.88;7713363;22;20281;-67
2024/04/21 21:55:51;;;;;;;2.27;2.07;;;;;;;6.80;100.00;102645.50;7718901;22;20277;-67
2024/04/21 21:59:11;;;;;;;3.77;2.23;;;;;;;6.80;100.00;102645.50;7729166;22;20621;-67
2024/04/21 22:02:33;;;;;;;4.43;3.00;;;;;;;6.69;100.00;102652.28;7699961;22;20434;-68
2024/04/21 22:05:56;;;;;;;2.50;2.30;;;;;;;6.69;100.00;102644.25;7712089;22;20309;-68
2024/04/21 22:09:19;;;;;;;5.27;3.07;;;;;;;6.82;100.00;102650.81;7724057;22;21002;-68
2024/04/21 22:12:40;;;;;;;3.20;2.37;;;;;;;6.81;100.00;102649.06;7709879;22;20582;-67
2024/04/21 22:16:06;;;;;;;2.40;2.10;;;;;;;6.70;100.00;102649.53;7698458;22;20625;-67
2024/04/21 22:19:29;;;;;;;2.37;2.07;;;;;;;6.77;100.00;102637.59;7720174;22;20277;-64
2024/04/21 22:22:54;;;;;;;4.17;2.07;;;;;;;6.69;100.00;102647.81;7705692;22;20282;-65
2024/04/21 22:26:15;;;;;;;2.40;2.07;;;;;;;6.64;100.00;102651.59;7698320;22;20274;-66
2024/04/21 22:29:38;;;;;;;3.30;1.90;;;;;;;6.89;100.00;102644.22;7709390;22;20274;-64
2024/04/21 22:32:58;;;;;;;3.20;1.87;;;;;;;6.86;100.00;102647.91;7697647;22;20266;-64
2024/04/21 22:36:21;;;;;;;2.23;2.03;;;;;;;6.69;100.00;102646.94;7710905;22;20271;-64
2024/04/21 22:39:46;;;;;;;2.60;2.13;;;;;;;6.56;100.00;102645.72;7722937;22;20578;-64
2024/04/21 22:43:11;;;;;;;3.33;2.13;;;;;;;6.38;100.00;102637.53;7720037;22;20279;-65
2024/04/21 22:46:35;;;;;;;3.57;2.53;;;;;;;6.40;100.00;102638.34;7702722;22;20582;-64
2024/04/21 22:49:58;;;;;;;5.20;3.57;;;;;;;6.38;100.00;102642.88;7724291;22;20563;-64
2024/04/21 22:53:21;;;;;;;2.73;2.50;;;;;;;6.37;100.00;102643.84;7723066;22;20270;-65
2024/04/21 22:56:46;;;;;;;3.83;3.07;;;;;;;6.31;100.00;102643.22;7715048;22;20515;-64
2024/04/21 23:00:10;;;;;;;2.87;2.57;;;;;;;6.27;100.00;102638.94;7720264;22;20519;-64
2024/04/21 23:03:34;;;;;;;3.10;2.83;;;;;;;6.11;100.00;102644.06;7721942;22;20658;-65
2024/04/21 23:06:57;;;;;;;5.13;2.40;;;;;;;6.14;100.00;102645.75;7714624;22;20480;-66
2024/04/21 23:10:19;;;;;;;2.13;1.93;;;;;;;6.05;100.00;102643.47;7716622;22;20262;-64
2024/04/21 23:13:45;;;;;;;2.60;2.37;;;;;;;5.97;100.00;102642.91;7726820;22;20262;-64
2024/04/21 23:17:07;;;;;;;2.50;2.27;;;;;;;5.98;100.00;102640.19;7706162;22;20277;-65
2024/04/21 23:20:30;;;;;;;4.27;2.10;;;;;;;6.02;100.00;102644.47;7712754;22;20675;-65
2024/04/21 23:23:52;;;;;;;6.40;2.97;;;;;;;5.96;100.00;102647.41;7724593;22;20274;-65
2024/04/21 23:27:13;;;;;;;3.00;2.60;;;;;;;5.96;100.00;102638.50;7707663;22;20711;-63
2024/04/21 23:30:38;;;;;;;1.80;1.70;;;;;;;5.94;100.00;102649.28;7716624;22;21233;-64
2024/04/21 23:34:02;;;;;;;3.93;3.60;;;;;;;5.94;100.00;102646.59;7722793;22;20573;-65
2024/04/21 23:37:24;;;;;;;2.50;1.97;;;;;;;5.88;100.00;102646.84;7716958;22;20270;-65
2024/04/21 23:40:46;;;;;;;2.67;2.47;;;;;;;5.99;100.00;102643.69;7716553;22;20281;-65
2024/04/21 23:44:08;;;;;;;2.33;2.13;;;;;;;6.02;100.00;102640.91;7726103;22;20270;-65
2024/04/21 23:47:31;;;;;;;2.70;2.00;;;;;;;5.89;100.00;102650.38;7702933;22;20577;-66
2024/04/21 23:50:53;;;;;;;2.70;2.43;;;;;;;5.85;100.00;102644.28;7715272;22;20322;-65
2024/04/21 23:54:13;;;;;;;2.47;2.27;;;;;;;5.81;100.00;102639.97;7726656;22;20262;-65
2024/04/21 23:57:35;;;;;;;3.07;2.80;;;;;;;5.84;100.00;102645.19;7713037;22;20266;-65
